Crystal, New Mexico
Current Conditions -  °F | °C
As of 4:53 PM on Wednesday 22 Oct 2014 (Local Time) from KGUP Reporting Station
Clear Clear  
Wind Chill: 68°   Ceiling: Unl
Heat Index: 68°   Visibility: 10mi
Dew Point: 36°   Wind: 12mph
Humidity: 31%   Direction: 220°SW
Pressure: 30.19"   Gusts: NA
Location:  35.8917°N, 108.926°W
Report Text: KGUP 222253Z AUTO 22010KT 10SM CLR 20/02 A3019 RMK AO2 SLP128 T02000022
Loading
Personal Weather Stations






























Interactive Weather Map
Tropical Storm Tracking
New forecast layout! Learn more

10-Day Weather Forecast

Advertisements
Track Severe Weather on mobile